Terminal Aerodrome Forecast
Issued by NWS

Home | Current Version | Previous Version | Text Only | Print | Product List | Glossary On
Versions: 1 2 3 4 5 6 7 8 9 10 11 12 13 14 15 16
000
FTUS43 KLSX 181120
TAFUIN
TAF
KUIN 181120Z 1812/1912 23012KT P6SM SKC
     FM181700 22013G20KT P6SM SKC
     FM190000 21010KT P6SM FEW250
     FM190300 22009KT P6SM SKC WS012/24040KT=

USA.gov is the U.S. government's official web portal to all federal, state and local government web resources and services.